Terminal Aerodrome Forecast
Issued by NWS

Home | Current Version | Previous Version | Text Only | Print | Product List | Glossary Off
Versions: 1 2 3 4 5 6 7 8 9 10 11 12 13 14 15 16 17 18 19

283
FTUS42 KMHX 290925 AAA
TAFISO
TAF AMD
KISO 290925Z 2909/3006 05003KT P6SM VCSH SCT015 OVC035
      TEMPO 2909/2912 BKN006
     FM291200 07005KT P6SM VCSH OVC020
     FM291400 10007KT 6SM SHRA OVC020
     FM291800 12008KT 5SM SHRA SCT020 OVC035
      AMD LTD TO CLD VIS AND WIND=

USA.gov is the U.S. government's official web portal to all federal, state and local government web resources and services.